Time;durP1;ratioP1;P1;durP2;ratioP2;P2;SDS_P1;SDS_P2;PMS_P1;PMS_P2;Temp;Humidity;BMP_temperature;BMP_pressure;BME280_temperature;BME280_humidity;BME280_pressure;Samples;Min_cycle;Max_cycle;Signal;HPM_P1;HPM_P2
2022/11/03 00:02:13;;;;;;;10.70;4.80;;;9.70;99.90;;;;;;5037921;28;20218;-79
2022/11/03 00:04:40;;;;;;;10.07;4.43;;;9.80;99.90;;;;;;5038350;28;20298;-78
2022/11/03 00:07:07;;;;;;;12.83;4.70;;;9.70;99.90;;;;;;5038448;28;20261;-78
2022/11/03 00:09:37;;;;;;;9.73;4.60;;;9.70;99.90;;;;;;5022148;28;20218;-80
2022/11/03 00:12:04;;;;;;;9.33;4.80;;;9.70;99.90;;;;;;5021758;28;20207;-78
2022/11/03 00:14:31;;;;;;;12.30;4.77;;;9.60;99.90;;;;;;5038445;28;20193;-79
2022/11/03 00:16:58;;;;;;;9.43;4.13;;;9.60;99.90;;;;;;5055869;28;20199;-81
2022/11/03 00:19:24;;;;;;;12.33;4.17;;;9.60;99.90;;;;;;5037920;28;20195;-80
2022/11/03 00:21:51;;;;;;;7.07;3.87;;;9.60;99.90;;;;;;5038097;28;20269;-78
2022/11/03 00:24:26;;;;;;;11.10;4.50;;;9.50;99.90;;;;;;5055665;28;20194;-80
2022/11/03 00:26:53;;;;;;;11.63;4.50;;;9.50;99.90;;;;;;5037631;28;20196;-78
2022/11/03 00:29:20;;;;;;;12.03;4.33;;;9.40;99.90;;;;;;5037784;28;20702;-79
2022/11/03 00:31:47;;;;;;;10.37;4.07;;;9.30;99.90;;;;;;5055247;28;20547;-81
2022/11/03 00:34:14;;;;;;;10.23;4.30;;;9.30;99.90;;;;;;5037451;28;20190;-78
2022/11/03 00:36:42;;;;;;;11.20;4.60;;;9.30;99.90;;;;;;5037604;28;20210;-78
2022/11/03 00:39:11;;;;;;;11.37;4.40;;;9.20;99.90;;;;;;5037300;28;20587;-78
2022/11/03 00:41:38;;;;;;;10.23;4.20;;;9.30;99.90;;;;;;5037992;28;20226;-79
2022/11/03 00:44:06;;;;;;;14.30;4.87;;;9.10;99.90;;;;;;5055034;28;20232;-77
2022/11/03 00:46:35;;;;;;;8.50;4.13;;;9.10;99.90;;;;;;5037048;28;20208;-79
2022/11/03 00:49:04;;;;;;;9.83;4.30;;;9.00;99.90;;;;;;5037672;28;20205;-79
2022/11/03 00:51:33;;;;;;;13.23;4.50;;;9.10;99.90;;;;;;5037633;28;20197;-80
2022/11/03 00:54:01;;;;;;;10.27;3.90;;;8.90;99.90;;;;;;5055097;28;20202;-83
2022/11/03 00:56:41;;;;;;;10.67;4.20;;;8.90;99.90;;;;;;5053852;28;20202;-84
2022/11/03 00:59:08;;;;;;;7.70;3.90;;;9.00;99.90;;;;;;5019948;28;20542;-79
2022/11/03 01:01:40;;;;;;;11.30;4.00;;;8.90;99.90;;;;;;5054941;28;20255;-77
2022/11/03 01:07:14;;;;;;;7.73;3.70;;;8.90;99.90;;;;;;5035963;28;20655;-78
2022/11/03 01:09:42;;;;;;;8.73;3.73;;;8.90;99.90;;;;;;5037009;28;20280;-83
2022/11/03 01:12:14;;;;;;;8.23;3.70;;;8.80;99.90;;;;;;5037366;28;20205;-77
2022/11/03 01:14:47;;;;;;;10.37;4.17;;;8.70;99.90;;;;;;5053302;28;20205;-78
2022/11/03 01:17:22;;;;;;;8.77;3.73;;;8.60;99.90;;;;;;5036570;28;20667;-81
2022/11/03 01:19:50;;;;;;;9.43;4.00;;;8.60;99.90;;;;;;5053394;28;20210;-78
2022/11/03 01:22:17;;;;;;;8.50;3.73;;;8.60;99.90;;;;;;5036396;28;20218;-77
2022/11/03 01:24:45;;;;;;;9.67;3.90;;;8.60;99.90;;;;;;5053337;28;20206;-77
2022/11/03 01:27:17;;;;;;;6.93;3.60;;;8.60;99.90;;;;;;5053590;28;20197;-77
2022/11/03 01:29:45;;;;;;;12.07;3.80;;;8.50;99.90;;;;;;5053718;28;20207;-77
2022/11/03 01:32:12;;;;;;;10.33;4.00;;;8.60;99.90;;;;;;5036375;28;20206;-77
2022/11/03 01:34:39;;;;;;;8.13;3.53;;;8.50;99.90;;;;;;5036616;28;20201;-76
2022/11/03 01:37:05;;;;;;;10.67;3.70;;;8.50;99.90;;;;;;5054237;28;20196;-79
2022/11/03 01:39:32;;;;;;;8.60;3.60;;;8.50;99.90;;;;;;5036456;28;20202;-77
2022/11/03 01:41:59;;;;;;;8.07;3.60;;;8.40;99.90;;;;;;5036357;28;20221;-76
2022/11/03 01:44:26;;;;;;;9.10;3.47;;;8.40;99.90;;;;;;5036129;28;20226;-77
2022/11/03 01:47:27;;;;;;;9.70;4.17;;;8.40;99.90;;;;;;5036068;28;20202;-77
2022/11/03 01:50:01;;;;;;;14.03;4.37;;;8.30;99.90;;;;;;5036253;28;20194;-78
2022/11/03 01:52:47;;;;;;;10.63;4.17;;;8.30;99.90;;;;;;5035909;28;20659;-78
2022/11/03 01:55:23;;;;;;;12.73;4.30;;;8.30;99.90;;;;;;5036028;28;20206;-77
2022/11/03 01:57:59;;;;;;;11.57;4.73;;;8.20;99.90;;;;;;5036282;28;20201;-77
2022/11/03 02:00:26;;;;;;;10.63;4.63;;;8.30;99.90;;;;;;5052658;28;20191;-77
2022/11/03 02:02:53;;;;;;;12.70;4.80;;;8.10;99.90;;;;;;5035718;28;20244;-79
2022/11/03 02:05:24;;;;;;;11.70;4.93;;;8.10;99.90;;;;;;5053928;28;20194;-77
2022/11/03 02:08:12;;;;;;;10.97;5.13;;;8.20;99.90;;;;;;5036393;28;20582;-81
2022/11/03 02:10:39;;;;;;;12.83;5.17;;;8.10;99.90;;;;;;5036024;28;20219;-79
2022/11/03 02:13:23;;;;;;;11.20;5.27;;;8.10;99.90;;;;;;5036136;28;20232;-80
2022/11/03 02:15:54;;;;;;;11.67;4.97;;;8.10;99.90;;;;;;5034840;28;20191;-77
2022/11/03 02:18:28;;;;;;;12.17;5.00;;;8.10;99.90;;;;;;5035362;28;20378;-77
2022/11/03 02:21:37;;;;;;;13.27;5.17;;;8.10;99.90;;;;;;5053483;28;20197;-76
2022/11/03 02:24:37;;;;;;;13.50;5.87;;;8.10;99.90;;;;;;5034264;28;20217;-78
2022/11/03 02:27:04;;;;;;;11.10;5.40;;;8.10;99.90;;;;;;5035476;28;20201;-77
2022/11/03 02:29:30;;;;;;;13.13;5.83;;;8.00;99.90;;;;;;5035699;28;20183;-77
2022/11/03 02:32:09;;;;;;;16.13;6.17;;;8.00;99.90;;;;;;5035988;28;20597;-79
2022/11/03 02:34:48;;;;;;;12.57;6.00;;;7.90;99.90;;;;;;5035436;28;20258;-77
2022/11/03 02:37:26;;;;;;;16.37;6.10;;;7.90;99.90;;;;;;5035379;28;20197;-78
2022/11/03 02:39:58;;;;;;;15.90;6.40;;;7.90;99.90;;;;;;5033838;28;20209;-79
2022/11/03 02:42:25;;;;;;;15.60;6.90;;;7.90;99.90;;;;;;5035247;28;20220;-78
2022/11/03 02:44:56;;;;;;;15.07;5.73;;;7.90;99.90;;;;;;5034782;28;20711;-80
2022/11/03 02:47:26;;;;;;;15.33;6.60;;;7.80;99.90;;;;;;5035123;28;20193;-79
2022/11/03 02:49:53;;;;;;;19.00;7.20;;;7.90;99.90;;;;;;5018890;28;20240;-80
2022/11/03 02:52:38;;;;;;;15.53;6.23;;;7.90;99.90;;;;;;5052779;28;20205;-79
2022/11/03 02:55:26;;;;;;;16.30;6.47;;;7.90;99.90;;;;;;5035235;28;20300;-79
2022/11/03 02:58:33;;;;;;;17.93;6.83;;;7.80;99.90;;;;;;5034828;28;20609;-78
2022/11/03 03:01:13;;;;;;;16.90;6.40;;;7.90;99.90;;;;;;5052757;28;20274;-78
2022/11/03 03:04:09;;;;;;;19.63;6.87;;;7.80;99.90;;;;;;5034710;28;20290;-77
2022/11/03 03:06:37;;;;;;;15.73;7.20;;;7.80;99.90;;;;;;5049247;28;20212;-78
2022/11/03 03:09:07;;;;;;;15.87;6.63;;;7.70;99.90;;;;;;5035060;28;20201;-79
2022/11/03 03:11:36;;;;;;;20.40;6.93;;;7.70;99.90;;;;;;5034759;28;20198;-78
2022/11/03 03:14:12;;;;;;;14.70;7.10;;;7.70;99.90;;;;;;5034614;28;20263;-80
2022/11/03 03:16:59;;;;;;;14.87;6.80;;;7.70;99.90;;;;;;5034810;28;20208;-80
2022/11/03 03:19:51;;;;;;;13.67;6.67;;;7.70;99.90;;;;;;5034907;28;20297;-77
2022/11/03 03:22:24;;;;;;;15.40;6.60;;;7.60;99.90;;;;;;5034474;28;20209;-81
2022/11/03 03:24:59;;;;;;;19.60;7.43;;;7.60;99.90;;;;;;5034784;28;20219;-77
2022/11/03 03:27:30;;;;;;;13.70;6.50;;;7.60;99.90;;;;;;5037975;28;20605;-77
2022/11/03 03:30:06;;;;;;;13.17;6.53;;;7.60;99.90;;;;;;5038735;28;20205;-77
2022/11/03 03:32:38;;;;;;;13.50;6.77;;;7.60;99.90;;;;;;5038705;28;20208;-77
2022/11/03 03:35:09;;;;;;;13.80;6.20;;;7.60;99.90;;;;;;5038567;28;20199;-80
2022/11/03 03:37:41;;;;;;;17.57;7.10;;;7.50;99.90;;;;;;5039008;28;20194;-77
2022/11/03 03:40:13;;;;;;;14.90;6.67;;;7.60;99.90;;;;;;5056850;28;20634;-78
2022/11/03 03:42:42;;;;;;;13.20;6.10;;;7.60;99.90;;;;;;5038350;28;20579;-77
2022/11/03 03:45:10;;;;;;;14.43;6.97;;;7.60;99.90;;;;;;5023594;28;20234;-78
2022/11/03 03:47:38;;;;;;;19.60;6.57;;;7.50;99.90;;;;;;5018595;28;20203;-77
2022/11/03 03:50:05;;;;;;;18.63;6.77;;;7.50;99.90;;;;;;5018506;28;20199;-76
2022/11/03 03:52:36;;;;;;;17.13;6.97;;;7.50;99.90;;;;;;5018504;28;20656;-77
2022/11/03 03:55:05;;;;;;;16.27;6.77;;;7.50;99.90;;;;;;5018460;28;20201;-77
2022/11/03 03:57:32;;;;;;;16.93;6.83;;;7.40;99.90;;;;;;5018711;28;20201;-78
2022/11/03 03:59:59;;;;;;;11.90;6.77;;;7.50;99.90;;;;;;5002069;28;20268;-78
2022/11/03 04:02:26;;;;;;;13.73;6.57;;;7.40;99.90;;;;;;5018269;28;20224;-78
2022/11/03 04:04:53;;;;;;;16.90;7.70;;;7.30;99.90;;;;;;5018197;28;20203;-80
2022/11/03 04:10:10;;;;;;;16.50;6.53;;;7.30;99.90;;;;;;5017965;28;20307;-81
2022/11/03 04:23:42;;;;;;;11.90;6.10;;;7.20;99.90;;;;;;5017883;28;20628;-77
2022/11/03 04:26:14;;;;;;;12.07;6.53;;;7.30;99.90;;;;;;5017964;28;20208;-79
2022/11/03 04:28:42;;;;;;;14.53;6.87;;;7.20;99.90;;;;;;5018008;28;20231;-77
2022/11/03 04:31:13;;;;;;;14.50;6.43;;;7.20;99.90;;;;;;5018130;28;20194;-77
2022/11/03 04:33:41;;;;;;;13.83;6.77;;;7.20;99.90;;;;;;5017968;28;20238;-78
2022/11/03 04:36:17;;;;;;;14.67;6.90;;;7.10;99.90;;;;;;5017617;28;20209;-81
2022/11/03 04:38:44;;;;;;;14.00;6.67;;;7.10;99.90;;;;;;5016934;28;20202;-78
2022/11/03 04:41:21;;;;;;;17.53;7.10;;;7.00;99.90;;;;;;5017559;28;20242;-77
2022/11/03 04:43:50;;;;;;;17.33;7.07;;;7.00;99.90;;;;;;5017634;28;20314;-79
2022/11/03 04:46:24;;;;;;;20.10;7.50;;;7.00;99.90;;;;;;5001376;28;20281;-80
2022/11/03 04:48:58;;;;;;;12.87;6.93;;;7.00;99.90;;;;;;5035397;28;20213;-78
2022/11/03 04:51:29;;;;;;;18.23;7.10;;;7.00;99.90;;;;;;5035168;28;20205;-77
2022/11/03 04:54:05;;;;;;;16.63;7.20;;;7.00;99.90;;;;;;5035176;28;20551;-78
2022/11/03 04:56:32;;;;;;;13.70;6.50;;;6.90;99.90;;;;;;5017692;28;20199;-79
2022/11/03 04:58:59;;;;;;;15.93;7.17;;;6.90;99.90;;;;;;5017544;28;20193;-78
2022/11/03 05:01:28;;;;;;;15.30;7.23;;;6.90;99.90;;;;;;5017326;28;20213;-77
2022/11/03 05:03:58;;;;;;;15.40;7.20;;;6.90;99.90;;;;;;5016917;28;20224;-78
2022/11/03 05:06:28;;;;;;;17.77;7.03;;;6.80;99.90;;;;;;5034956;28;20541;-78
2022/11/03 05:08:59;;;;;;;15.67;7.00;;;6.80;99.90;;;;;;5034813;28;20282;-77
2022/11/03 05:11:33;;;;;;;18.57;7.47;;;6.80;99.90;;;;;;5000531;28;20698;-78
2022/11/03 05:14:05;;;;;;;16.57;7.27;;;6.80;99.90;;;;;;5016799;28;20217;-78
2022/11/03 05:16:33;;;;;;;15.90;6.47;;;6.80;99.90;;;;;;5017097;28;20290;-77
2022/11/03 05:19:00;;;;;;;14.87;7.10;;;6.80;99.90;;;;;;5017026;28;20197;-79
2022/11/03 05:21:28;;;;;;;12.77;7.30;;;6.80;99.90;;;;;;5034576;28;20204;-78
2022/11/03 05:24:01;;;;;;;15.57;6.40;;;6.80;99.90;;;;;;5000592;28;20298;-77
2022/11/03 05:26:34;;;;;;;19.73;7.37;;;6.70;99.90;;;;;;5016650;28;20201;-79
2022/11/03 05:29:07;;;;;;;16.40;7.13;;;6.70;99.90;;;;;;5017005;28;20209;-78
2022/11/03 05:31:36;;;;;;;16.23;6.83;;;6.70;99.90;;;;;;5000583;28;20202;-77
2022/11/03 05:34:23;;;;;;;16.27;7.23;;;6.70;99.90;;;;;;5016638;28;20203;-76
2022/11/03 05:36:50;;;;;;;17.60;7.43;;;6.70;99.90;;;;;;5016372;28;20202;-77
2022/11/03 05:39:27;;;;;;;14.60;7.40;;;6.60;99.90;;;;;;5034148;28;20646;-77
2022/11/03 05:41:56;;;;;;;16.60;7.03;;;6.70;99.90;;;;;;5016727;28;20207;-77
2022/11/03 05:44:36;;;;;;;16.10;7.23;;;6.60;99.90;;;;;;5024580;28;20252;-77
2022/11/03 05:47:17;;;;;;;17.00;7.33;;;6.60;99.90;;;;;;5036475;28;20666;-77
2022/11/03 05:49:48;;;;;;;16.23;7.80;;;6.60;99.90;;;;;;5036107;28;20205;-77
2022/11/03 05:52:21;;;;;;;14.57;6.80;;;6.60;99.90;;;;;;5053841;28;20191;-77
2022/11/03 05:54:49;;;;;;;15.60;7.87;;;6.60;99.90;;;;;;5035843;28;20209;-80
2022/11/03 05:57:17;;;;;;;16.57;7.70;;;6.60;99.90;;;;;;5036078;28;20200;-82
2022/11/03 05:59:48;;;;;;;15.17;6.97;;;6.60;99.90;;;;;;5054001;28;20197;-79
2022/11/03 06:02:37;;;;;;;17.37;7.53;;;6.60;99.90;;;;;;5020213;28;20198;-77
2022/11/03 06:05:17;;;;;;;15.70;7.70;;;6.60;99.90;;;;;;5036039;28;20279;-79
2022/11/03 06:07:47;;;;;;;17.57;8.03;;;6.60;99.90;;;;;;5019719;28;20191;-77
2022/11/03 06:10:37;;;;;;;19.50;7.70;;;6.60;99.90;;;;;;5036160;28;20230;-80
2022/11/03 06:13:12;;;;;;;21.27;8.30;;;6.70;99.90;;;;;;5035790;28;20212;-79
2022/11/03 06:15:42;;;;;;;18.80;8.17;;;6.70;99.90;;;;;;5035469;28;20196;-78
2022/11/03 06:18:17;;;;;;;23.37;8.40;;;6.80;99.90;;;;;;5053540;28;20213;-79
2022/11/03 06:20:53;;;;;;;15.10;7.50;;;6.60;99.90;;;;;;5053485;28;20190;-79
2022/11/03 06:23:20;;;;;;;17.60;8.10;;;6.70;99.90;;;;;;5035381;28;20219;-77
2022/11/03 06:25:50;;;;;;;19.03;7.90;;;6.70;99.90;;;;;;5035341;28;20599;-77
2022/11/03 06:28:27;;;;;;;15.60;7.93;;;6.70;99.90;;;;;;5035521;28;20669;-79
2022/11/03 06:30:55;;;;;;;18.37;8.20;;;6.70;99.90;;;;;;5019909;28;20195;-80
2022/11/03 06:33:29;;;;;;;17.93;7.47;;;6.80;99.90;;;;;;5019016;28;20204;-79
2022/11/03 06:36:17;;;;;;;16.13;7.30;;;6.80;99.90;;;;;;5034893;28;20293;-77
2022/11/03 06:38:54;;;;;;;14.93;7.27;;;6.80;99.90;;;;;;5053108;28;20223;-77
2022/11/03 06:41:28;;;;;;;15.50;6.97;;;6.80;99.90;;;;;;5035601;28;20279;-82
2022/11/03 06:44:00;;;;;;;16.10;7.30;;;7.00;99.90;;;;;;5053193;28;20316;-78
2022/11/03 06:46:29;;;;;;;14.37;6.67;;;7.00;99.90;;;;;;5035035;28;20544;-77
2022/11/03 06:49:03;;;;;;;22.13;8.40;;;7.10;99.90;;;;;;5035099;28;20657;-80
2022/11/03 06:51:33;;;;;;;24.53;8.20;;;7.00;99.90;;;;;;5035025;28;20241;-78
2022/11/03 06:54:04;;;;;;;16.87;8.03;;;7.10;99.90;;;;;;5035140;28;20225;-78
2022/11/03 06:56:35;;;;;;;16.23;7.70;;;7.20;99.90;;;;;;5034908;28;20670;-78
2022/11/03 06:59:02;;;;;;;24.70;7.97;;;7.20;99.90;;;;;;5034767;28;20220;-79
2022/11/03 07:01:32;;;;;;;15.60;7.47;;;7.20;99.90;;;;;;5034777;28;20199;-84
2022/11/03 07:04:19;;;;;;;15.27;7.47;;;7.30;99.90;;;;;;5018378;28;20253;-80
2022/11/03 07:06:47;;;;;;;19.83;7.73;;;7.40;99.90;;;;;;5052547;28;20240;-80
2022/11/03 07:09:22;;;;;;;18.83;7.97;;;7.50;99.90;;;;;;5034883;28;20289;-80
2022/11/03 07:11:54;;;;;;;17.13;7.33;;;7.50;99.90;;;;;;5034613;28;20221;-77
2022/11/03 07:14:27;;;;;;;20.50;7.93;;;7.60;99.90;;;;;;5034996;28;20203;-79
2022/11/03 07:16:59;;;;;;;22.43;8.13;;;7.60;99.90;;;;;;5052604;28;20511;-79
2022/11/03 07:19:29;;;;;;;18.53;7.47;;;7.70;99.90;;;;;;5052769;28;20650;-74
2022/11/03 07:22:19;;;;;;;16.53;7.43;;;7.70;99.90;;;;;;5052533;28;20246;-77
2022/11/03 07:24:49;;;;;;;15.60;7.60;;;7.80;99.90;;;;;;5034988;28;20229;-77
2022/11/03 07:27:20;;;;;;;15.87;7.53;;;7.80;99.90;;;;;;5034837;28;20220;-78
2022/11/03 07:29:49;;;;;;;19.37;7.73;;;7.90;99.90;;;;;;5034730;28;20289;-77
2022/11/03 07:32:22;;;;;;;21.17;8.17;;;8.00;99.90;;;;;;5034744;28;20194;-75
2022/11/03 07:34:52;;;;;;;17.37;7.47;;;8.30;99.90;;;;;;5034684;28;20202;-78
2022/11/03 07:37:23;;;;;;;14.17;6.97;;;9.00;99.90;;;;;;5052680;28;20198;-77
2022/11/03 07:39:51;;;;;;;14.70;6.97;;;9.50;99.90;;;;;;5034939;28;20198;-78
2022/11/03 07:42:21;;;;;;;14.83;7.13;;;10.10;99.90;;;;;;5052592;28;20187;-77
2022/11/03 07:44:49;;;;;;;16.20;6.70;;;10.60;99.90;;;;;;5034168;28;20246;-78
2022/11/03 07:47:20;;;;;;;13.23;6.50;;;10.80;99.90;;;;;;5052483;28;20193;-77
2022/11/03 07:49:47;;;;;;;19.50;6.97;;;10.80;99.90;;;;;;5034364;28;20257;-76
2022/11/03 07:52:19;;;;;;;14.83;6.97;;;10.80;99.90;;;;;;5034484;28;20210;-76
2022/11/03 07:54:47;;;;;;;14.53;6.97;;;11.00;99.90;;;;;;5052379;28;20202;-78
2022/11/03 07:57:17;;;;;;;14.27;6.13;;;11.30;99.90;;;;;;5052555;28;20597;-76
2022/11/03 07:59:48;;;;;;;17.77;6.87;;;11.40;99.90;;;;;;5034441;28;20716;-77
2022/11/03 08:02:40;;;;;;;23.03;7.43;;;11.80;99.90;;;;;;5052093;28;20551;-78
2022/11/03 08:05:07;;;;;;;18.43;6.60;;;12.30;99.90;;;;;;5034209;28;20226;-77
2022/11/03 08:07:34;;;;;;;12.20;6.47;;;12.30;99.90;;;;;;5051893;28;20225;-76
2022/11/03 08:10:06;;;;;;;13.63;6.13;;;12.40;99.90;;;;;;5034325;28;20198;-78
2022/11/03 08:12:33;;;;;;;14.07;6.10;;;12.40;99.90;;;;;;5034514;28;20230;-78
2022/11/03 08:15:00;;;;;;;13.10;6.00;;;12.30;99.90;;;;;;5037742;28;20605;-82
2022/11/03 08:17:27;;;;;;;14.07;6.07;;;12.20;99.90;;;;;;5021405;28;20198;-80
2022/11/03 08:19:54;;;;;;;23.20;6.93;;;12.50;99.90;;;;;;5037596;28;20195;-77
2022/11/03 08:22:24;;;;;;;14.27;6.30;;;12.70;99.90;;;;;;5037585;28;20199;-72
2022/11/03 08:24:51;;;;;;;13.67;5.77;;;12.70;99.90;;;;;;5037590;28;20227;-79
2022/11/03 08:27:21;;;;;;;11.40;6.23;;;12.70;99.90;;;;;;5037737;28;20191;-88
2022/11/03 08:46:44;;;;;;;13.07;5.63;;;13.70;99.90;;;;;;5270919;22;20234;-75
2022/11/03 08:49:17;;;;;;;10.70;5.03;;;14.10;99.90;;;;;;4999152;28;20570;-76
2022/11/03 08:52:16;;;;;;;11.07;5.33;;;14.20;99.90;;;;;;5001853;28;20205;-76
2022/11/03 08:58:28;;;;;;;12.73;5.20;;;14.20;99.90;;;;;;4882799;29;20214;-78
2022/11/03 09:00:55;;;;;;;12.07;4.97;;;14.20;99.90;;;;;;4897696;29;20624;-76
2022/11/03 09:03:22;;;;;;;14.67;4.80;;;14.30;99.90;;;;;;4897535;29;20209;-75
2022/11/03 09:06:15;;;;;;;12.70;4.80;;;14.70;99.90;;;;;;4881747;29;20204;-79
2022/11/03 09:09:29;;;;;;;22.17;5.20;;;14.60;99.90;;;;;;4897897;29;20741;-77
2022/11/03 09:12:16;;;;;;;17.23;5.27;;;14.50;99.90;;;;;;4884851;29;20573;-77
2022/11/03 09:14:43;;;;;;;11.17;4.07;;;15.00;99.90;;;;;;4897826;29;20329;-78
2022/11/03 09:19:59;;;;;;;11.70;4.53;;;15.50;99.90;;;;;;5491724;22;20239;-79
2022/11/03 09:30:04;;;;;;;10.67;4.17;;;15.70;99.90;;;;;;5034768;28;20168;-77
2022/11/03 09:33:04;;;;;;;8.33;3.67;;;15.40;99.90;;;;;;4937763;29;20750;-81
2022/11/03 09:35:30;;;;;;;10.73;4.20;;;15.00;99.90;;;;;;4974100;28;20257;-79
2022/11/03 09:38:13;;;;;;;;;;;;;;;;;;;;;
2022/11/03 09:44:20;;;;;;;10.03;4.07;;;14.70;99.90;;;;;;4936848;29;20221;-78
2022/11/03 09:46:47;;;;;;;9.90;3.60;;;15.20;99.90;;;;;;4975454;28;20190;-79
2022/11/03 09:49:15;;;;;;;7.57;3.53;;;15.70;99.90;;;;;;4973666;28;20682;-80
2022/11/03 09:51:42;;;;;;;12.67;3.60;;;16.00;99.90;;;;;;4974303;28;20673;-80
2022/11/03 09:54:13;;;;;;;11.33;3.73;;;16.40;99.90;;;;;;4957827;28;20297;-73
2022/11/03 09:56:41;;;;;;;12.23;3.30;;;16.50;99.90;;;;;;4957978;28;20209;-76
2022/11/03 09:59:20;;;;;;;9.33;3.57;;;16.80;99.90;;;;;;4957301;28;20276;-74
2022/11/03 10:01:49;;;;;;;9.63;3.30;;;16.70;99.90;;;;;;4973709;28;20200;-74
2022/11/03 10:04:21;;;;;;;7.10;3.00;;;16.50;99.90;;;;;;4973351;28;20229;-73
2022/11/03 10:06:48;;;;;;;9.80;2.90;;;16.30;99.90;;;;;;4973472;28;20203;-73
2022/11/03 10:09:19;;;;;;;6.83;2.70;;;16.30;99.90;;;;;;4973563;28;20259;-74
2022/11/03 10:11:46;;;;;;;9.47;3.17;;;16.40;99.90;;;;;;4980732;28;20213;-76
2022/11/03 10:14:16;;;;;;;8.53;2.83;;;16.40;99.90;;;;;;4993134;28;20650;-75
2022/11/03 10:16:59;;;;;;;8.13;2.50;;;16.60;99.90;;;;;;4992881;28;20283;-75
2022/11/03 10:19:26;;;;;;;7.53;2.47;;;17.10;99.90;;;;;;4976932;28;20193;-73
2022/11/03 10:21:54;;;;;;;7.23;2.00;;;17.20;99.90;;;;;;4992940;28;20204;-73
2022/11/03 10:24:21;;;;;;;8.07;2.60;;;17.20;99.90;;;;;;4992529;28;20216;-74
2022/11/03 10:26:51;;;;;;;7.83;2.60;;;17.20;99.90;;;;;;4992930;28;20232;-75
2022/11/03 10:29:24;;;;;;;13.70;2.70;;;16.70;99.90;;;;;;4976791;28;20216;-77
2022/11/03 10:31:53;;;;;;;9.17;2.63;;;16.50;99.90;;;;;;4956407;28;20427;-75
2022/11/03 10:34:36;;;;;;;10.03;2.50;;;16.30;99.90;;;;;;4974434;28;20591;-76
2022/11/03 10:37:21;;;;;;;7.30;2.20;;;16.20;99.90;;;;;;4974049;28;20208;-74
2022/11/03 10:39:53;;;;;;;8.27;2.60;;;16.00;99.90;;;;;;4973102;28;20201;-76
2022/11/03 10:42:23;;;;;;;8.60;2.50;;;15.60;99.90;;;;;;4978854;28;20330;-74
2022/11/03 10:45:14;;;;;;;11.73;2.57;;;15.70;99.90;;;;;;4976238;28;20228;-75
2022/11/03 10:47:41;;;;;;;13.27;2.30;;;15.60;99.90;;;;;;4960467;28;20190;-75
2022/11/03 10:50:23;;;;;;;8.73;2.10;;;15.70;99.90;;;;;;4993644;28;20677;-75
2022/11/03 10:52:51;;;;;;;8.67;1.93;;;15.90;99.90;;;;;;4992757;28;20197;-76
2022/11/03 10:55:21;;;;;;;11.17;2.10;;;15.50;99.90;;;;;;4975698;28;20259;-75
2022/11/03 10:57:54;;;;;;;5.13;1.57;;;15.10;99.90;;;;;;4992375;28;20204;-75
2022/11/03 11:00:22;;;;;;;9.10;1.83;;;15.10;99.90;;;;;;5029011;23;20440;-80
2022/11/03 11:02:59;;;;;;;7.28;2.10;;;15.00;99.90;;;;;;5034071;28;20476;-77
2022/11/03 11:05:26;;;;;;;5.20;1.80;;;15.00;99.90;;;;;;5052429;28;20214;-76
2022/11/03 11:07:54;;;;;;;7.37;1.80;;;14.90;99.90;;;;;;5017948;28;20206;-74
2022/11/03 11:10:22;;;;;;;6.30;1.80;;;14.60;99.90;;;;;;5034836;28;20202;-75
2022/11/03 11:13:14;;;;;;;7.17;1.90;;;14.70;99.90;;;;;;5052377;28;20218;-77
2022/11/03 11:15:40;;;;;;;5.53;1.50;;;14.80;99.90;;;;;;5034817;28;20194;-78
2022/11/03 11:18:09;;;;;;;7.80;2.50;;;14.90;99.90;;;;;;5034709;28;20255;-75
2022/11/03 11:20:38;;;;;;;6.23;1.70;;;14.90;99.90;;;;;;5034908;28;20218;-76
2022/11/03 11:23:26;;;;;;;8.20;2.00;;;15.00;99.90;;;;;;5034531;28;20252;-76
2022/11/03 11:26:28;;;;;;;12.77;2.07;;;15.50;99.90;;;;;;5052057;28;20581;-76
2022/11/03 11:29:07;;;;;;;6.90;1.67;;;16.10;99.90;;;;;;5031994;28;20298;-76
2022/11/03 11:31:37;;;;;;;7.37;1.60;;;16.70;99.90;;;;;;5034154;28;20209;-74
2022/11/03 11:34:08;;;;;;;5.30;1.67;;;17.10;99.90;;;;;;5034552;28;20207;-76
2022/11/03 11:36:41;;;;;;;8.57;2.00;;;18.10;99.90;;;;;;5034540;28;20205;-75
2022/11/03 11:39:26;;;;;;;7.53;1.87;;;18.70;99.90;;;;;;5034408;28;20202;-77
2022/11/03 11:42:17;;;;;;;5.40;1.63;;;19.60;99.90;;;;;;5034432;28;20183;-79
2022/11/03 11:44:45;;;;;;;7.90;1.93;;;20.40;99.90;;;;;;5034223;28;20246;-78
2022/11/03 11:47:32;;;;;;;5.80;1.90;;;20.70;99.90;;;;;;5035665;28;20209;-77
2022/11/03 11:50:05;;;;;;;7.03;1.70;;;20.60;99.90;;;;;;5055770;28;20320;-78
2022/11/03 11:52:50;;;;;;;3.60;1.40;;;20.90;99.90;;;;;;5038372;28;20290;-78
2022/11/03 11:55:23;;;;;;;4.90;1.20;;;21.00;99.90;;;;;;5044885;23;20580;-77
2022/11/03 11:57:54;;;;;;;3.17;1.20;;;20.00;98.20;;;;;;5038015;28;20195;-79
2022/11/03 12:00:25;;;;;;;5.87;1.20;;;20.10;98.90;;;;;;5021057;28;20636;-76
2022/11/03 12:02:52;;;;;;;6.80;2.00;;;20.20;99.30;;;;;;5038073;28;20655;-76
2022/11/03 12:05:29;;;;;;;5.63;1.63;;;20.40;98.70;;;;;;5055452;28;20272;-74
2022/11/03 12:07:56;;;;;;;7.10;1.60;;;19.80;98.20;;;;;;5055818;28;20636;-76
2022/11/03 12:10:30;;;;;;;6.10;1.70;;;19.40;99.00;;;;;;5036637;28;20591;-75
2022/11/03 12:12:59;;;;;;;5.97;1.93;;;19.00;99.90;;;;;;5037191;28;20273;-75
2022/11/03 12:15:49;;;;;;;5.30;1.60;;;19.10;99.60;;;;;;5037927;28;20238;-77
2022/11/03 12:18:40;;;;;;;7.57;1.90;;;19.40;99.90;;;;;;5037440;28;20194;-77
2022/11/03 12:21:47;;;;;;;5.37;1.60;;;19.30;99.90;;;;;;5037948;28;20244;-76
2022/11/03 12:24:32;;;;;;;6.03;1.60;;;18.80;99.90;;;;;;5055016;28;20194;-78
2022/11/03 12:27:00;;;;;;;6.07;1.80;;;18.50;99.90;;;;;;5037391;28;20213;-73
2022/11/03 12:29:27;;;;;;;6.33;1.57;;;18.30;99.90;;;;;;5037732;28;20195;-74
2022/11/03 12:31:54;;;;;;;6.20;1.70;;;18.40;99.90;;;;;;5037332;28;20195;-75
2022/11/03 12:34:21;;;;;;;3.93;1.40;;;18.60;99.90;;;;;;5037396;28;20191;-75
2022/11/03 12:36:48;;;;;;;8.90;1.50;;;18.60;99.90;;;;;;5037114;28;20274;-77
2022/11/03 12:39:21;;;;;;;8.23;1.57;;;18.50;99.90;;;;;;5055174;28;20248;-75
2022/11/03 12:41:48;;;;;;;6.27;1.60;;;18.70;99.60;;;;;;5042517;28;20199;-76
2022/11/03 12:44:15;;;;;;;5.70;1.55;;;18.60;99.90;;;;;;5035113;28;20789;-77
2022/11/03 12:46:42;;;;;;;5.97;1.50;;;18.40;99.60;;;;;;5017367;28;20203;-76
2022/11/03 12:49:09;;;;;;;5.13;1.37;;;18.40;99.70;;;;;;5017863;28;20203;-75
2022/11/03 12:51:36;;;;;;;6.07;1.60;;;18.00;99.90;;;;;;5017569;28;20199;-76
2022/11/03 12:54:03;;;;;;;8.90;2.07;;;17.70;99.90;;;;;;5035217;28;20191;-76
2022/11/03 12:56:30;;;;;;;6.50;1.53;;;17.50;99.90;;;;;;5016748;28;20333;-75
2022/11/03 12:58:57;;;;;;;4.73;1.80;;;17.40;99.90;;;;;;5000063;28;20599;-74
2022/11/03 13:01:24;;;;;;;7.33;1.60;;;17.40;99.90;;;;;;5035146;28;20195;-74
2022/11/03 13:03:51;;;;;;;5.60;1.60;;;17.20;99.90;;;;;;5034567;28;20209;-75
2022/11/03 13:06:18;;;;;;;7.83;1.80;;;17.50;99.90;;;;;;5017244;28;20273;-75
2022/11/03 13:08:51;;;;;;;4.27;1.20;;;17.90;99.90;;;;;;5016954;28;20214;-75
2022/11/03 13:14:04;;;;;;;7.53;1.70;;;18.30;99.90;;;;;;5016920;28;20303;-74
2022/11/03 13:16:31;;;;;;;5.07;1.50;;;18.50;99.90;;;;;;5017030;28;20253;-78
2022/11/03 13:18:58;;;;;;;4.77;1.43;;;18.30;99.60;;;;;;5017224;28;20688;-75
2022/11/03 13:21:25;;;;;;;7.67;1.63;;;18.00;99.80;;;;;;5016915;28;20196;-76
2022/11/03 13:23:52;;;;;;;5.97;1.47;;;18.10;99.90;;;;;;5016517;28;20312;-77
2022/11/03 13:26:19;;;;;;;5.60;1.50;;;18.00;99.40;;;;;;5034055;28;20211;-75
2022/11/03 13:28:46;;;;;;;6.17;1.70;;;17.80;99.90;;;;;;5034627;28;20552;-77
2022/11/03 13:31:13;;;;;;;6.13;1.50;;;17.80;99.90;;;;;;5034611;28;20279;-77
2022/11/03 13:33:40;;;;;;;5.80;1.50;;;17.90;99.90;;;;;;5034377;28;20593;-75
2022/11/03 13:36:07;;;;;;;5.60;1.60;;;17.80;99.90;;;;;;5000082;28;20207;-76
2022/11/03 13:38:35;;;;;;;6.10;1.53;;;17.90;99.90;;;;;;5016646;28;20197;-74
2022/11/03 13:41:02;;;;;;;4.83;1.30;;;17.70;99.90;;;;;;5016564;28;20203;-75
2022/11/03 13:43:37;;;;;;;6.33;1.60;;;17.70;99.90;;;;;;5016471;28;20184;-75
2022/11/03 13:46:05;;;;;;;7.07;1.80;;;17.60;99.90;;;;;;5016115;28;20212;-75
2022/11/03 13:48:32;;;;;;;5.95;1.70;;;17.40;99.90;;;;;;5015336;28;20429;-74
2022/11/03 13:51:20;;;;;;;5.07;1.30;;;17.30;99.90;;;;;;5015790;28;20203;-76
2022/11/03 13:53:47;;;;;;;6.23;1.90;;;16.90;99.90;;;;;;5015754;28;20206;-76
2022/11/03 13:56:34;;;;;;;7.40;1.70;;;16.70;99.90;;;;;;5015209;28;20300;-74
2022/11/03 13:59:21;;;;;;;8.13;1.60;;;16.50;99.90;;;;;;5033469;28;20269;-76
2022/11/03 14:01:51;;;;;;;5.17;1.37;;;16.40;99.90;;;;;;5016322;28;20207;-76
2022/11/03 14:04:44;;;;;;;4.97;1.40;;;16.20;99.90;;;;;;5040393;22;20289;-76
2022/11/03 14:07:11;;;;;;;6.50;1.70;;;15.90;99.90;;;;;;5032500;28;20435;-76
2022/11/03 14:09:38;;;;;;;5.70;1.60;;;15.80;99.90;;;;;;5032547;28;20703;-75
2022/11/03 14:14:51;;;;;;;9.47;1.57;;;15.40;99.90;;;;;;5032075;28;20219;-75